Albatros — DITX — position and weather

sailwx.info

Track history (hours):
 
Tides and Currents Weather Stations Pressure Air Temp Water Temp Dewpoint Dewpoint Depression Visibility Wind Speed Wind Dir Waves Ship Positions

Albatros

Last reported at 2014-Sep-18 13:12 UTC. Time now 2014-Sep-18 21:50 UTC.
Position N 54°31' E 013°10'.

Length 16 m.

MMSI: 211226200.

Date/timePositionNaut miles runAvg speedWind from/ knotsBaromVisibWave heightAir tempDewpointWater temp
2014-Sep-18 13:12N 54°31' E 013°10'2 3.8
2014-Sep-18 12:33N 54°33' E 013°09'7 6.9
2014-Sep-18 11:33N 54°40' E 013°14'3 3.5
2014-Sep-18 10:33N 54°41' E 013°20'1 0.7
2014-Sep-18 09:33N 54°41' E 013°18'4 3.8
2014-Sep-18 08:33N 54°42' E 013°12'2 1.7
2014-Sep-18 07:33N 54°40' E 013°11'1 1.3
2014-Sep-18 06:33N 54°39' E 013°10'6 6.1
2014-Sep-18 05:33N 54°33' E 013°08'0 0.0
2014-Sep-17 12:33N 54°33' E 013°08'6 5.8
2014-Sep-17 11:33N 54°38' E 013°12'5 4.7
2014-Sep-17 10:34N 54°41' E 013°18'4 4.0
2014-Sep-17 09:33N 54°42' E 013°25'1 1.4
2014-Sep-17 08:34N 54°42' E 013°22'6 6.1
2014-Sep-17 07:34N 54°42' E 013°12'3 2.7
2014-Sep-17 06:33N 54°39' E 013°10'6 6.0
2014-Sep-17 05:33N 54°33' E 013°08'3 0.2
2014-Sep-16 13:33N 54°31' E 013°10'3 3.0
2014-Sep-16 12:34N 54°34' E 013°09'7 6.9
2014-Sep-16 11:34N 54°41' E 013°10'1 0.8
2014-Sep-16 10:34N 54°41' E 013°10'1 1.2
2014-Sep-16 09:34N 54°42' E 013°13'1 1.1
2014-Sep-16 08:34N 54°42' E 013°11'0 0.4
2014-Sep-16 07:31N 54°41' E 013°10'3 3.1
2014-Sep-16 06:33N 54°39' E 013°12'6 6.2
2014-Sep-16 05:34N 54°33' E 013°08'2 2.4
2014-Sep-16 04:33N 54°31' E 013°10'  
2014-Sep-12 11:24N 54°31' E 013°10'3 3.0
2014-Sep-12 10:33N 54°33' E 013°09'6 5.9
2014-Sep-12 09:33N 54°39' E 013°11'0 0.2
2014-Sep-12 08:33N 54°39' E 013°11'0 0.5
2014-Sep-12 07:33N 54°39' E 013°11'2 1.5
2014-Sep-12 06:33N 54°38' E 013°11'6 5.7
2014-Sep-12 05:33N 54°33' E 013°08'2 2.1
2014-Sep-12 04:33N 54°31' E 013°10'  
2014-Sep-08 13:33N 54°31' E 013°10'  
Track history (hours):
 
Tides and Currents Weather Stations Pressure Air Temp Water Temp Dewpoint Dewpoint Depression Visibility Wind Speed Wind Dir Waves Ship Positions

Albatros

Last reported at 2014-Sep-18 13:12 UTC. Time now 2014-Sep-18 21:50 UTC.
Position N 54°31' E 013°10'.

Length 16 m.

MMSI: 211226200.

Date/timePositionNaut miles runAvg speedWind from/ knotsBaromVisibWave heightAir tempDewpointWater temp
2014-Sep-18 13:12N 54°31' E 013°10'2 3.8
2014-Sep-18 12:33N 54°33' E 013°09'7 6.9
2014-Sep-18 11:33N 54°40' E 013°14'3 3.5
2014-Sep-18 10:33N 54°41' E 013°20'1 0.7
2014-Sep-18 09:33N 54°41' E 013°18'4 3.8
2014-Sep-18 08:33N 54°42' E 013°12'2 1.7
2014-Sep-18 07:33N 54°40' E 013°11'1 1.3
2014-Sep-18 06:33N 54°39' E 013°10'6 6.1
2014-Sep-18 05:33N 54°33' E 013°08'0 0.0
2014-Sep-17 12:33N 54°33' E 013°08'6 5.8
2014-Sep-17 11:33N 54°38' E 013°12'5 4.7
2014-Sep-17 10:34N 54°41' E 013°18'4 4.0
2014-Sep-17 09:33N 54°42' E 013°25'1 1.4
2014-Sep-17 08:34N 54°42' E 013°22'6 6.1
2014-Sep-17 07:34N 54°42' E 013°12'3 2.7
2014-Sep-17 06:33N 54°39' E 013°10'6 6.0
2014-Sep-17 05:33N 54°33' E 013°08'3 0.2
2014-Sep-16 13:33N 54°31' E 013°10'3 3.0
2014-Sep-16 12:34N 54°34' E 013°09'7 6.9
2014-Sep-16 11:34N 54°41' E 013°10'1 0.8
2014-Sep-16 10:34N 54°41' E 013°10'1 1.2
2014-Sep-16 09:34N 54°42' E 013°13'1 1.1
2014-Sep-16 08:34N 54°42' E 013°11'0 0.4
2014-Sep-16 07:31N 54°41' E 013°10'3 3.1
2014-Sep-16 06:33N 54°39' E 013°12'6 6.2
2014-Sep-16 05:34N 54°33' E 013°08'2 2.4
2014-Sep-16 04:33N 54°31' E 013°10'  
2014-Sep-12 11:24N 54°31' E 013°10'3 3.0
2014-Sep-12 10:33N 54°33' E 013°09'6 5.9
2014-Sep-12 09:33N 54°39' E 013°11'0 0.2
2014-Sep-12 08:33N 54°39' E 013°11'0 0.5
2014-Sep-12 07:33N 54°39' E 013°11'2 1.5
2014-Sep-12 06:33N 54°38' E 013°11'6 5.7
2014-Sep-12 05:33N 54°33' E 013°08'2 2.1
2014-Sep-12 04:33N 54°31' E 013°10'  
2014-Sep-08 13:33N 54°31' E 013°10'  

Dump ship's entire track history